Time;durP1;ratioP1;P1;durP2;ratioP2;P2;SDS_P1;SDS_P2;PMS_P1;PMS_P2;Temp;Humidity;BMP_temperature;BMP_pressure;BME280_temperature;BME280_humidity;BME280_pressure;Samples;Min_cycle;Max_cycle;Signal;HPM_P1;HPM_P2
2022/07/28 00:01:58;;;;;;;;;;;;;;;17.77;44.76;98957.50;2624426;54;19939;-67
2022/07/28 00:04:27;;;;;;;;;;;;;;;17.68;44.74;98957.03;2623640;51;19950;-66
2022/07/28 00:06:57;;;;;;;;;;;;;;;17.71;44.97;98953.88;2622141;54;19947;-66
2022/07/28 00:09:29;;;;;;;;;;;;;;;17.65;44.49;98954.81;2620979;54;19939;-67
2022/07/28 00:11:58;;;;;;;;;;;;;;;17.51;44.99;98946.25;2621365;54;19947;-67
2022/07/28 00:14:30;;;;;;;;;;;;;;;17.53;45.05;98946.81;2621008;54;20450;-66
2022/07/28 00:16:59;;;;;;;;;;;;;;;17.32;45.92;98942.06;2621788;54;19947;-66
2022/07/28 00:19:29;;;;;;;;;;;;;;;17.24;45.92;98947.75;2621487;54;19946;-67
2022/07/28 00:21:58;;;;;;;;;;;;;;;17.26;46.38;98946.47;2621435;54;19946;-66
2022/07/28 00:24:28;;;;;;;;;;;;;;;17.33;46.02;98949.84;2621106;54;19966;-66
2022/07/28 00:26:57;;;;;;;;;;;;;;;17.43;45.90;98943.94;2620442;54;20438;-68
2022/07/28 00:29:29;;;;;;;;;;;;;;;17.29;45.74;98943.31;2620583;54;20461;-67
2022/07/28 00:32:19;;;;;;;;;;;;;;;17.14;46.14;98940.31;2620992;54;19962;-66
2022/07/28 00:34:49;;;;;;;;;;;;;;;16.98;46.34;98940.97;2621004;54;20426;-67
2022/07/28 00:37:21;;;;;;;;;;;;;;;16.95;46.97;98939.59;2621285;39;20413;-68
2022/07/28 00:39:51;;;;;;;;;;;;;;;16.96;46.46;98938.56;2620628;54;20441;-66
2022/07/28 00:42:20;;;;;;;;;;;;;;;17.01;46.51;98944.00;2621345;39;20322;-67
2022/07/28 00:44:52;;;;;;;;;;;;;;;16.98;46.48;98940.97;2621351;54;19946;-65
2022/07/28 00:47:22;;;;;;;;;;;;;;;16.97;46.25;98940.16;2621166;54;19946;-65
2022/07/28 00:49:51;;;;;;;;;;;;;;;16.98;46.86;98935.63;2620724;54;19946;-67
2022/07/28 00:52:21;;;;;;;;;;;;;;;16.98;47.12;98930.31;2621405;54;19953;-66
2022/07/28 00:54:50;;;;;;;;;;;;;;;16.86;47.13;98930.31;2621512;54;19951;-65
2022/07/28 00:57:20;;;;;;;;;;;;;;;16.75;47.63;98931.09;2621596;54;19943;-66
2022/07/28 00:59:52;;;;;;;;;;;;;;;16.72;47.22;98929.66;2621088;54;20066;-66
2022/07/28 01:02:22;;;;;;;;;;;;;;;16.68;46.94;98925.81;2620447;54;19938;-64
2022/07/28 01:04:52;;;;;;;;;;;;;;;16.68;47.09;98925.00;2620852;54;20481;-64
2022/07/28 01:07:27;;;;;;;;;;;;;;;16.73;47.59;98922.50;2620660;54;19961;-68
2022/07/28 01:10:00;;;;;;;;;;;;;;;16.83;46.88;98920.09;2620960;54;19947;-64
2022/07/28 01:12:35;;;;;;;;;;;;;;;16.81;46.96;98917.63;2620635;54;19977;-65
2022/07/28 01:15:10;;;;;;;;;;;;;;;16.72;47.14;98907.50;2620519;54;19969;-64
2022/07/28 01:17:41;;;;;;;;;;;;;;;16.74;47.28;98910.78;2623476;39;20309;-64
2022/07/28 01:20:13;;;;;;;;;;;;;;;16.65;47.47;98907.59;2622628;54;19946;-64
2022/07/28 01:22:43;;;;;;;;;;;;;;;16.56;48.15;98907.09;2622699;54;19953;-64
2022/07/28 01:25:18;;;;;;;;;;;;;;;16.46;48.25;98911.41;2622200;54;19938;-65
2022/07/28 01:27:54;;;;;;;;;;;;;;;16.53;48.17;98907.59;2622696;54;19939;-65
2022/07/28 01:30:29;;;;;;;;;;;;;;;16.54;48.48;98908.41;2623213;54;19969;-67
2022/07/28 01:33:01;;;;;;;;;;;;;;;16.53;47.92;98904.09;2623834;54;19941;-65
2022/07/28 01:35:34;;;;;;;;;;;;;;;16.50;47.85;98904.56;2623988;54;19947;-66
2022/07/28 01:38:06;;;;;;;;;;;;;;;16.52;47.73;98905.13;2622522;54;19946;-65
2022/07/28 01:40:37;;;;;;;;;;;;;;;16.46;47.64;98903.38;2621214;54;19943;-65
2022/07/28 01:43:08;;;;;;;;;;;;;;;16.41;48.50;98905.91;2621796;54;19954;-66
2022/07/28 01:45:45;;;;;;;;;;;;;;;16.46;48.17;98892.72;2622082;54;19939;-65
2022/07/28 01:48:16;;;;;;;;;;;;;;;16.34;48.58;98895.34;2621914;54;19953;-65
2022/07/28 01:50:48;;;;;;;;;;;;;;;16.39;48.84;98895.47;2621832;54;19939;-65
2022/07/28 01:53:18;;;;;;;;;;;;;;;16.33;48.96;98888.41;2621981;54;19939;-66
2022/07/28 01:55:48;;;;;;;;;;;;;;;16.33;48.46;98893.72;2619239;54;19939;-65
2022/07/28 01:58:20;;;;;;;;;;;;;;;16.32;48.60;98892.06;2619136;54;19950;-66
2022/07/28 02:00:52;;;;;;;;;;;;;;;16.18;49.08;98882.66;2618710;54;19946;-66
2022/07/28 02:03:23;;;;;;;;;;;;;;;16.21;49.27;98888.34;2619295;54;19934;-66
2022/07/28 02:05:55;;;;;;;;;;;;;;;16.30;48.62;98888.84;2618683;47;20432;-66
2022/07/28 02:08:25;;;;;;;;;;;;;;;16.34;49.05;98882.81;2619105;54;19950;-66
2022/07/28 02:13:39;;;;;;;;;;;;;;;16.37;47.84;98873.56;2622084;54;19977;-65
2022/07/28 02:16:13;;;;;;;;;;;;;;;16.29;47.74;98873.88;2622834;54;19946;-66
2022/07/28 02:18:43;;;;;;;;;;;;;;;16.16;47.83;98872.19;2621431;47;20026;-66
2022/07/28 02:21:13;;;;;;;;;;;;;;;16.23;47.89;98872.91;2621779;54;19943;-66
2022/07/28 02:23:44;;;;;;;;;;;;;;;16.31;47.47;98864.59;2621972;39;20333;-65
2022/07/28 02:26:15;;;;;;;;;;;;;;;16.31;47.60;98866.44;2622765;54;19954;-65
2022/07/28 02:28:50;;;;;;;;;;;;;;;16.25;47.44;98860.19;2623774;39;20357;-65
2022/07/28 02:31:26;;;;;;;;;;;;;;;16.13;47.46;98856.66;2624683;39;20388;-66
2022/07/28 02:33:57;;;;;;;;;;;;;;;16.13;47.33;98856.66;2620890;54;19998;-66
2022/07/28 02:36:33;;;;;;;;;;;;;;;16.13;47.22;98856.66;2619093;54;19946;-65
2022/07/28 02:39:04;;;;;;;;;;;;;;;16.18;47.07;98847.97;2618600;54;19947;-65
2022/07/28 02:41:34;;;;;;;;;;;;;;;16.16;46.79;98853.53;2619485;54;19962;-65
2022/07/28 02:44:10;;;;;;;;;;;;;;;16.07;47.30;98846.91;2619425;54;19947;-65
2022/07/28 02:46:45;;;;;;;;;;;;;;;16.06;47.61;98843.41;2622283;54;19947;-65
2022/07/28 02:49:17;;;;;;;;;;;;;;;16.03;46.98;98840.38;2622897;54;19953;-64
2022/07/28 02:51:48;;;;;;;;;;;;;;;16.02;46.75;98846.78;2623052;54;19945;-64
2022/07/28 02:54:19;;;;;;;;;;;;;;;16.00;47.51;98849.69;2623036;54;19961;-64
2022/07/28 02:56:49;;;;;;;;;;;;;;;15.97;47.61;98844.78;2622644;54;20011;-66
2022/07/28 02:59:22;;;;;;;;;;;;;;;15.96;47.98;98850.31;2622100;54;19955;-66
2022/07/28 03:01:55;;;;;;;;;;;;;;;15.87;48.06;98849.03;2622877;54;19938;-65
2022/07/28 03:07:07;;;;;;;;;;;;;;;15.89;48.24;98847.78;2622163;54;19947;-66
2022/07/28 03:09:40;;;;;;;;;;;;;;;15.82;48.29;98855.84;2622369;54;19950;-66
2022/07/28 03:12:10;;;;;;;;;;;;;;;15.85;48.76;98846.59;2622400;54;19987;-66
2022/07/28 03:14:40;;;;;;;;;;;;;;;15.88;48.88;98854.16;2621635;54;19939;-66
2022/07/28 03:17:12;;;;;;;;;;;;;;;15.92;48.50;98847.31;2620957;54;19946;-65
2022/07/28 03:19:42;;;;;;;;;;;;;;;15.97;48.34;98849.31;2620958;54;19946;-65
2022/07/28 03:22:11;;;;;;;;;;;;;;;15.99;48.27;98848.03;2621834;39;20330;-65
2022/07/28 03:24:43;;;;;;;;;;;;;;;15.95;48.58;98854.03;2620731;54;20453;-65
2022/07/28 03:27:16;;;;;;;;;;;;;;;15.73;49.09;98857.19;2620260;51;19946;-66
2022/07/28 03:29:48;;;;;;;;;;;;;;;15.66;49.48;98853.78;2620853;54;19953;-65
2022/07/28 03:32:21;;;;;;;;;;;;;;;15.65;49.29;98851.38;2620309;54;19950;-66
2022/07/28 03:34:51;;;;;;;;;;;;;;;15.64;49.73;98855.03;2620122;54;19938;-65
2022/07/28 03:37:25;;;;;;;;;;;;;;;15.73;49.55;98851.88;2620333;54;19938;-65
2022/07/28 03:39:56;;;;;;;;;;;;;;;15.76;49.34;98854.09;2620476;54;19965;-65
2022/07/28 03:42:26;;;;;;;;;;;;;;;15.79;48.96;98850.94;2619844;54;20495;-66
2022/07/28 03:44:56;;;;;;;;;;;;;;;15.70;49.46;98856.81;2620442;54;19947;-65
2022/07/28 03:47:28;;;;;;;;;;;;;;;15.65;49.43;98856.69;2619912;46;20002;-66
2022/07/28 03:49:57;;;;;;;;;;;;;;;15.64;49.64;98853.19;2620247;39;20398;-66
2022/07/28 03:52:26;;;;;;;;;;;;;;;15.63;49.95;98848.88;2620488;54;19939;-64
2022/07/28 03:54:56;;;;;;;;;;;;;;;15.66;49.71;98856.47;2622613;54;19951;-66
2022/07/28 03:57:25;;;;;;;;;;;;;;;15.73;49.52;98845.72;2622488;54;19950;-65
2022/07/28 03:59:55;;;;;;;;;;;;;;;15.64;49.39;98847.06;2621585;54;19939;-65
2022/07/28 04:02:24;;;;;;;;;;;;;;;15.53;49.64;98857.41;2589919;54;19947;-68
2022/07/28 04:04:56;;;;;;;;;;;;;;;15.56;49.76;98846.31;2617996;54;19950;-67
2022/07/28 04:07:25;;;;;;;;;;;;;;;15.60;50.00;98854.69;2618234;54;19961;-67
2022/07/28 04:09:55;;;;;;;;;;;;;;;15.58;49.46;98848.75;2617944;54;20460;-67
2022/07/28 04:12:24;;;;;;;;;;;;;;;15.61;50.10;98851.78;2618073;54;19953;-66
2022/07/28 04:14:54;;;;;;;;;;;;;;;15.70;49.55;98844.31;2618069;54;19935;-66
2022/07/28 04:17:23;;;;;;;;;;;;;;;15.66;49.55;98843.13;2624705;39;20344;-66
2022/07/28 04:19:55;;;;;;;;;;;;;;;15.68;49.69;98849.06;2624242;54;20037;-65
2022/07/28 04:22:24;;;;;;;;;;;;;;;15.78;49.90;98832.53;2623446;54;19947;-65
2022/07/28 04:24:54;;;;;;;;;;;;;;;15.80;49.56;98844.59;2622901;47;19957;-65
2022/07/28 04:27:23;;;;;;;;;;;;;;;15.78;49.18;98835.19;2623394;54;19938;-66
2022/07/28 04:29:53;;;;;;;;;;;;;;;15.78;49.54;98841.34;2622390;54;19954;-66
2022/07/28 04:32:22;;;;;;;;;;;;;;;15.85;49.46;98835.94;2620926;54;20018;-67
2022/07/28 04:34:51;;;;;;;;;;;;;;;15.91;48.97;98840.34;2620680;54;19946;-65
2022/07/28 04:37:23;;;;;;;;;;;;;;;16.03;48.82;98833.19;2621325;54;19954;-66
2022/07/28 04:39:53;;;;;;;;;;;;;;;15.98;48.25;98833.06;2625613;39;20350;-65
2022/07/28 04:42:24;;;;;;;;;;;;;;;16.02;48.17;98826.25;2623376;54;19953;-66
2022/07/28 04:44:53;;;;;;;;;;;;;;;16.07;48.53;98823.72;2621035;54;19953;-65
2022/07/28 04:47:23;;;;;;;;;;;;;;;16.07;48.15;98833.56;2618215;51;19938;-65
2022/07/28 04:49:53;;;;;;;;;;;;;;;16.16;47.96;98828.72;2619575;54;19943;-65
2022/07/28 04:52:25;;;;;;;;;;;;;;;16.32;47.97;98830.72;2619791;39;20402;-65
2022/07/28 04:54:55;;;;;;;;;;;;;;;16.34;47.81;98834.00;2619103;54;19945;-65
2022/07/28 04:57:26;;;;;;;;;;;;;;;16.41;47.90;98837.38;2620122;54;19961;-65
2022/07/28 04:59:56;;;;;;;;;;;;;;;16.42;47.13;98832.84;2621037;54;19946;-65
2022/07/28 05:02:25;;;;;;;;;;;;;;;16.38;47.31;98837.03;2621057;54;19978;-65
2022/07/28 05:04:55;;;;;;;;;;;;;;;16.39;47.11;98844.78;2621355;54;19934;-65
2022/07/28 05:07:27;;;;;;;;;;;;;;;16.50;47.47;98840.53;2620999;39;20333;-65
2022/07/28 05:09:56;;;;;;;;;;;;;;;16.52;46.93;98846.44;2621528;54;19947;-65
2022/07/28 05:12:26;;;;;;;;;;;;;;;16.53;47.34;98832.03;2623062;54;19954;-66
2022/07/28 05:14:55;;;;;;;;;;;;;;;16.72;47.22;98844.25;2620695;54;19939;-65
2022/07/28 05:17:24;;;;;;;;;;;;;;;16.81;46.93;98840.22;2620622;54;19947;-65
2022/07/28 05:19:54;;;;;;;;;;;;;;;16.95;46.67;98842.66;2621204;54;20484;-66
2022/07/28 05:22:23;;;;;;;;;;;;;;;17.11;46.11;98846.50;2621067;54;19938;-66
2022/07/28 05:24:55;;;;;;;;;;;;;;;17.14;45.78;98838.00;2620074;54;19969;-65
2022/07/28 05:27:25;;;;;;;;;;;;;;;17.15;44.99;98839.63;2622174;54;20062;-65
2022/07/28 05:29:54;;;;;;;;;;;;;;;17.08;44.76;98850.44;2624163;54;19947;-65
2022/07/28 05:32:23;;;;;;;;;;;;;;;17.05;45.77;98837.53;2624891;54;19946;-66
2022/07/28 05:34:53;;;;;;;;;;;;;;;17.06;45.35;98836.47;2623821;54;19946;-66
2022/07/28 05:37:22;;;;;;;;;;;;;;;17.16;45.29;98841.25;2623737;54;19951;-63
2022/07/28 05:39:52;;;;;;;;;;;;;;;17.18;44.93;98839.97;2620150;54;19938;-64
2022/07/28 05:42:25;;;;;;;;;;;;;;;17.24;45.04;98836.38;2620697;39;20342;-65
2022/07/28 05:44:54;;;;;;;;;;;;;;;17.30;44.09;98838.09;2619993;54;19950;-63
2022/07/28 05:47:24;;;;;;;;;;;;;;;17.25;44.31;98837.97;2619180;54;19938;-67
2022/07/28 05:49:53;;;;;;;;;;;;;;;17.28;44.09;98837.50;2621435;39;20346;-67
2022/07/28 05:52:22;;;;;;;;;;;;;;;17.38;44.40;98844.13;2620753;54;19938;-64
2022/07/28 05:54:52;;;;;;;;;;;;;;;17.49;43.90;98840.63;2621062;54;19939;-64
2022/07/28 05:57:24;;;;;;;;;;;;;;;17.56;43.84;98839.44;2621335;54;19950;-67
2022/07/28 05:59:53;;;;;;;;;;;;;;;17.66;43.40;98838.81;2621413;54;19954;-67
2022/07/28 06:02:22;;;;;;;;;;;;;;;17.79;43.36;98843.09;2621329;47;19942;-64
2022/07/28 06:04:52;;;;;;;;;;;;;;;17.86;42.66;98845.63;2622584;54;19998;-65
2022/07/28 06:07:21;;;;;;;;;;;;;;;17.87;42.75;98841.91;2621367;54;19958;-66
2022/07/28 06:10:11;;;;;;;;;;;;;;;17.93;42.88;98839.09;2620366;54;20050;-64
2022/07/28 06:12:45;;;;;;;;;;;;;;;18.01;43.14;98841.38;2620182;54;19938;-64
2022/07/28 06:15:14;;;;;;;;;;;;;;;18.20;42.88;98838.50;2619613;54;19947;-64
2022/07/28 06:17:44;;;;;;;;;;;;;;;18.20;42.21;98843.84;2619376;54;19947;-64
2022/07/28 06:20:14;;;;;;;;;;;;;;;18.21;41.93;98838.28;2619162;54;19946;-66
2022/07/28 06:22:44;;;;;;;;;;;;;;;18.18;41.82;98838.75;2620139;54;19949;-64
2022/07/28 06:25:15;;;;;;;;;;;;;;;18.13;41.64;98840.53;2623813;54;19946;-65
2022/07/28 06:27:47;;;;;;;;;;;;;;;18.15;41.93;98841.09;2624793;54;20002;-67
2022/07/28 06:30:18;;;;;;;;;;;;;;;18.25;42.34;98843.94;2624043;47;19950;-65
2022/07/28 06:32:47;;;;;;;;;;;;;;;18.36;41.57;98840.38;2623757;46;19946;-65
2022/07/28 06:35:17;;;;;;;;;;;;;;;18.38;41.73;98837.47;2627891;39;20295;-64
2022/07/28 06:37:48;;;;;;;;;;;;;;;18.43;41.98;98837.56;2625067;39;20350;-65
2022/07/28 06:40:18;;;;;;;;;;;;;;;18.51;41.27;98831.78;2623856;54;20477;-64
2022/07/28 06:42:51;;;;;;;;;;;;;;;18.47;41.40;98844.84;2622972;54;19939;-64
2022/07/28 06:45:21;;;;;;;;;;;;;;;18.53;41.65;98841.22;2623847;54;20033;-66
2022/07/28 06:47:51;;;;;;;;;;;;;;;18.46;41.52;98848.59;2624218;54;19951;-67
2022/07/28 06:50:21;;;;;;;;;;;;;;;18.40;41.49;98846.06;2623735;54;19957;-66
2022/07/28 06:52:55;;;;;;;;;;;;;;;18.45;41.86;98843.47;2624181;54;19946;-66
2022/07/28 06:55:24;;;;;;;;;;;;;;;18.50;41.44;98844.38;2623850;54;19939;-65
2022/07/28 06:58:05;;;;;;;;;;;;;;;18.54;41.89;98844.69;2624685;39;20401;-66
2022/07/28 07:00:35;;;;;;;;;;;;;;;18.61;41.36;98836.50;2622256;54;19946;-65
2022/07/28 07:03:04;;;;;;;;;;;;;;;18.72;41.20;98846.34;2624299;31;20422;-66
2022/07/28 07:05:38;;;;;;;;;;;;;;;18.79;41.36;98845.13;2623778;54;19954;-67
2022/07/28 07:08:07;;;;;;;;;;;;;;;18.86;41.11;98836.09;2620812;54;19953;-66
2022/07/28 07:10:37;;;;;;;;;;;;;;;18.83;40.74;98834.75;2620409;54;19946;-66
2022/07/28 07:13:08;;;;;;;;;;;;;;;18.88;40.97;98828.63;2620776;54;19939;-66
2022/07/28 07:15:42;;;;;;;;;;;;;;;18.97;41.12;98837.88;2619109;54;19946;-66
2022/07/28 07:18:11;;;;;;;;;;;;;;;19.01;40.68;98831.78;2618872;54;19946;-66
2022/07/28 07:20:40;;;;;;;;;;;;;;;19.05;40.74;98832.09;2618698;54;19958;-66
2022/07/28 07:23:10;;;;;;;;;;;;;;;19.12;41.10;98829.25;2618904;54;19953;-66
2022/07/28 07:25:39;;;;;;;;;;;;;;;19.21;40.84;98825.88;2618849;54;19950;-68
2022/07/28 07:28:11;;;;;;;;;;;;;;;19.33;40.71;98824.97;2619411;54;19954;-66
2022/07/28 07:30:41;;;;;;;;;;;;;;;19.35;40.63;98825.50;2618383;54;19945;-66
2022/07/28 07:33:10;;;;;;;;;;;;;;;19.35;40.84;98822.81;2618429;47;19954;-66
2022/07/28 07:35:39;;;;;;;;;;;;;;;19.38;40.71;98825.03;2619637;54;19943;-63
2022/07/28 07:38:10;;;;;;;;;;;;;;;19.49;40.76;98830.25;2619885;54;20430;-64
2022/07/28 07:40:39;;;;;;;;;;;;;;;19.65;40.82;98827.78;2620266;54;19953;-64
2022/07/28 07:43:11;;;;;;;;;;;;;;;19.82;40.45;98828.50;2620302;54;19966;-65
2022/07/28 07:45:42;;;;;;;;;;;;;;;19.92;40.33;98819.75;2620898;54;19947;-64
2022/07/28 07:48:11;;;;;;;;;;;;;;;20.00;39.95;98820.13;2620210;54;19939;-67
2022/07/28 07:50:40;;;;;;;;;;;;;;;20.04;39.55;98826.63;2618121;54;19950;-66
2022/07/28 07:53:10;;;;;;;;;;;;;;;20.05;40.25;98832.78;2618445;54;19939;-66
2022/07/28 07:55:39;;;;;;;;;;;;;;;20.02;39.84;98823.34;2618458;54;20446;-66
2022/07/28 07:58:11;;;;;;;;;;;;;;;20.02;39.70;98820.69;2619985;39;20344;-65
2022/07/28 08:00:40;;;;;;;;;;;;;;;19.97;40.01;98822.50;2620103;54;19947;-65
2022/07/28 08:03:10;;;;;;;;;;;;;;;20.03;40.00;98821.50;2620692;39;20325;-66
2022/07/28 08:05:42;;;;;;;;;;;;;;;20.24;40.31;98817.91;2620160;54;19942;-65
2022/07/28 08:08:11;;;;;;;;;;;;;;;20.45;39.86;98815.41;2619477;47;19947;-65
2022/07/28 08:10:41;;;;;;;;;;;;;;;20.69;39.70;98815.88;2619469;54;19946;-64
2022/07/28 08:13:14;;;;;;;;;;;;;;;20.70;39.55;98815.66;2619598;54;20457;-67
2022/07/28 08:15:43;;;;;;;;;;;;;;;20.88;39.11;98814.41;2618410;47;20026;-65
2022/07/28 08:18:13;;;;;;;;;;;;;;;20.76;39.33;98811.09;2618521;54;19953;-67
2022/07/28 08:20:43;;;;;;;;;;;;;;;20.76;39.65;98805.75;2617931;47;20356;-65
2022/07/28 08:23:12;;;;;;;;;;;;;;;20.72;39.82;98796.56;2618848;54;19938;-65
2022/07/28 08:25:43;;;;;;;;;;;;;;;20.76;39.73;98800.38;2618598;47;19946;-64
2022/07/28 08:28:15;;;;;;;;;;;;;;;20.86;39.75;98795.06;2619704;54;19939;-65
2022/07/28 08:30:44;;;;;;;;;;;;;;;20.93;39.12;98792.94;2620529;54;20017;-66
2022/07/28 08:33:14;;;;;;;;;;;;;;;20.91;39.92;98789.72;2620858;54;19942;-66
2022/07/28 08:35:43;;;;;;;;;;;;;;;21.02;39.60;98787.88;2620925;54;20345;-64
2022/07/28 08:38:12;;;;;;;;;;;;;;;20.96;39.12;98795.13;2619721;54;19939;-66
2022/07/28 08:40:43;;;;;;;;;;;;;;;21.09;39.72;98793.84;2620257;54;19966;-66
2022/07/28 08:43:20;;;;;;;;;;;;;;;21.21;40.27;98797.13;2619153;54;20022;-66
2022/07/28 08:45:50;;;;;;;;;;;;;;;21.32;39.23;98795.31;2619956;54;19950;-66
2022/07/28 08:48:28;;;;;;;;;;;;;;;21.48;39.13;98791.63;2619713;54;19954;-66
2022/07/28 08:50:58;;;;;;;;;;;;;;;21.69;39.17;98787.09;2619875;54;19946;-65
2022/07/28 08:53:28;;;;;;;;;;;;;;;22.02;38.72;98793.09;2618890;47;19939;-66
2022/07/28 08:56:01;;;;;;;;;;;;;;;22.13;38.34;98781.28;2619957;39;20331;-66
2022/07/28 08:58:34;;;;;;;;;;;;;;;22.30;38.44;98777.53;2618930;54;19968;-66
2022/07/28 09:01:04;;;;;;;;;;;;;;;22.56;37.79;98781.81;2618880;54;19966;-67
2022/07/28 09:03:33;;;;;;;;;;;;;;;22.82;37.40;98785.28;2619330;54;19958;-67
2022/07/28 09:06:03;;;;;;;;;;;;;;;23.01;36.64;98782.81;2619994;54;20526;-64
2022/07/28 09:08:33;;;;;;;;;;;;;;;23.08;36.83;98774.44;2620100;54;19954;-65
2022/07/28 09:11:02;;;;;;;;;;;;;;;23.34;36.86;98778.66;2619510;54;19938;-65
2022/07/28 09:13:35;;;;;;;;;;;;;;;23.75;36.65;98775.78;2619199;54;19942;-68
2022/07/28 09:16:07;;;;;;;;;;;;;;;24.19;35.86;98769.53;2618673;39;20303;-67
2022/07/28 09:18:36;;;;;;;;;;;;;;;24.50;35.52;98772.00;2622344;54;19943;-67
2022/07/28 09:21:06;;;;;;;;;;;;;;;24.51;34.72;98765.50;2623607;54;19943;-67
2022/07/28 09:23:45;;;;;;;;;;;;;;;24.49;34.90;98765.78;2622939;54;19947;-66
2022/07/28 09:26:14;;;;;;;;;;;;;;;24.41;35.06;98766.41;2619953;54;19942;-67
2022/07/28 09:28:53;;;;;;;;;;;;;;;24.27;35.27;98762.72;2618527;54;19954;-66
2022/07/28 09:31:24;;;;;;;;;;;;;;;24.24;35.75;98758.69;2618232;39;20652;-66
2022/07/28 09:33:59;;;;;;;;;;;;;;;24.33;35.70;98754.31;2618601;54;19953;-66
2022/07/28 09:36:28;;;;;;;;;;;;;;;23.98;36.00;98753.47;2618306;54;19950;-66
2022/07/28 09:38:58;;;;;;;;;;;;;;;24.09;36.04;98753.44;2618053;54;19946;-66
2022/07/28 09:41:27;;;;;;;;;;;;;;;24.21;35.88;98751.97;2619492;39;20361;-66
2022/07/28 09:43:59;;;;;;;;;;;;;;;24.23;36.27;98749.78;2619111;54;19949;-65
2022/07/28 09:46:29;;;;;;;;;;;;;;;24.25;35.93;98741.41;2621820;54;19939;-66
2022/07/28 09:48:59;;;;;;;;;;;;;;;24.32;36.05;98741.06;2621060;54;19942;-66
2022/07/28 09:51:30;;;;;;;;;;;;;;;24.52;36.03;98743.59;2621159;54;19938;-66
2022/07/28 09:54:08;;;;;;;;;;;;;;;24.63;36.38;98736.22;2620812;54;20438;-66
2022/07/28 09:56:37;;;;;;;;;;;;;;;24.86;35.19;98740.84;2621513;54;19938;-66
2022/07/28 09:59:10;;;;;;;;;;;;;;;24.87;35.49;98733.53;2622249;54;20426;-66
2022/07/28 10:01:53;;;;;;;;;;;;;;;24.90;35.55;98733.75;2622513;54;19946;-66
2022/07/28 10:04:33;;;;;;;;;;;;;;;24.93;35.59;98733.16;2622623;54;19985;-67
2022/07/28 10:07:04;;;;;;;;;;;;;;;25.01;35.87;98723.59;2622898;54;19953;-66
2022/07/28 10:09:33;;;;;;;;;;;;;;;25.02;36.01;98719.78;2620780;54;19945;-66
2022/07/28 10:12:16;;;;;;;;;;;;;;;25.14;35.36;98717.50;2620689;54;19957;-66
2022/07/28 10:14:51;;;;;;;;;;;;;;;25.26;35.20;98708.97;2620932;54;19938;-69
2022/07/28 10:17:28;;;;;;;;;;;;;;;25.31;35.52;98714.34;2617501;54;19947;-65
2022/07/28 10:19:58;;;;;;;;;;;;;;;25.43;34.96;98698.47;2617832;54;19935;-66
2022/07/28 10:22:31;;;;;;;;;;;;;;;25.54;34.96;98704.53;2617602;54;19969;-67
2022/07/28 10:25:03;;;;;;;;;;;;;;;25.69;34.29;98701.59;2616973;47;19955;-66
2022/07/28 10:27:33;;;;;;;;;;;;;;;25.79;34.60;98697.16;2617567;54;19942;-68
2022/07/28 10:30:04;;;;;;;;;;;;;;;25.90;34.34;98693.19;2616833;47;19946;-68
2022/07/28 10:32:40;;;;;;;;;;;;;;;25.86;34.26;98687.56;2617494;54;19938;-68
2022/07/28 10:35:11;;;;;;;;;;;;;;;25.81;34.07;98686.84;2618338;54;19951;-67
2022/07/28 10:37:45;;;;;;;;;;;;;;;25.65;34.98;98689.75;2618538;54;19953;-67
2022/07/28 10:40:15;;;;;;;;;;;;;;;25.81;34.60;98686.84;2618486;54;19945;-66
2022/07/28 10:42:44;;;;;;;;;;;;;;;25.84;34.39;98684.34;2617931;54;20429;-67
2022/07/28 10:45:14;;;;;;;;;;;;;;;25.93;34.29;98679.88;2618426;54;19954;-67
2022/07/28 10:47:46;;;;;;;;;;;;;;;26.15;33.73;98689.25;2618673;54;19977;-67
2022/07/28 10:50:16;;;;;;;;;;;;;;;26.25;33.95;98686.38;2617660;54;19946;-67
2022/07/28 10:52:46;;;;;;;;;;;;;;;26.53;33.48;98683.72;2617969;47;19954;-66
2022/07/28 10:55:24;;;;;;;;;;;;;;;26.70;33.08;98680.41;2618528;54;19939;-66
2022/07/28 10:58:04;;;;;;;;;;;;;;;26.62;33.13;98682.72;2618628;54;19958;-67
2022/07/28 11:00:44;;;;;;;;;;;;;;;26.65;32.55;98670.47;2618319;54;19990;-67
2022/07/28 11:03:42;;;;;;;;;;;;;;;26.81;32.77;98668.25;2618653;54;20430;-66
2022/07/28 11:06:27;;;;;;;;;;;;;;;26.86;32.43;98665.44;2618502;54;19946;-66
2022/07/28 11:08:58;;;;;;;;;;;;;;;26.63;32.36;98661.84;2618011;54;19943;-67
2022/07/28 11:11:42;;;;;;;;;;;;;;;26.63;32.25;98659.13;2618572;54;20414;-66
2022/07/28 11:14:32;;;;;;;;;;;;;;;26.60;32.46;98655.09;2618585;54;19946;-66
2022/07/28 11:17:18;;;;;;;;;;;;;;;26.65;32.70;98648.78;2618733;54;19939;-66
2022/07/28 11:20:03;;;;;;;;;;;;;;;26.80;31.60;98653.09;2617938;54;19946;-67
2022/07/28 11:22:53;;;;;;;;;;;;;;;26.93;31.77;98652.28;2617767;51;20470;-66
2022/07/28 11:25:22;;;;;;;;;;;;;;;26.91;31.73;98647.16;2619029;54;19946;-68
2022/07/28 11:28:05;;;;;;;;;;;;;;;26.97;31.71;98655.19;2618397;54;19951;-66
2022/07/28 11:30:50;;;;;;;;;;;;;;;27.00;31.59;98651.88;2621219;54;19953;-68
2022/07/28 11:33:21;;;;;;;;;;;;;;;27.03;31.43;98643.94;2618491;54;19935;-68
2022/07/28 11:35:57;;;;;;;;;;;;;;;27.11;31.06;98647.88;2617741;54;20449;-67
2022/07/28 11:38:27;;;;;;;;;;;;;;;27.13;30.92;98646.44;2617826;54;19957;-66
2022/07/28 11:40:57;;;;;;;;;;;;;;;27.10;31.31;98638.91;2619523;47;20430;-67
2022/07/28 11:43:44;;;;;;;;;;;;;;;27.30;30.90;98645.78;2618444;54;19970;-66
2022/07/28 11:46:32;;;;;;;;;;;;;;;27.20;30.76;98647.94;2617961;46;19938;-66
2022/07/28 11:49:17;;;;;;;;;;;;;;;27.02;30.57;98642.31;2618632;54;20029;-67
2022/07/28 11:52:01;;;;;;;;;;;;;;;26.92;31.23;98632.50;2618581;54;19938;-67
2022/07/28 11:54:35;;;;;;;;;;;;;;;27.05;31.03;98628.13;2617854;47;19946;-66
2022/07/28 11:57:08;;;;;;;;;;;;;;;27.11;31.16;98643.25;2618550;54;19965;-66
2022/07/28 11:59:48;;;;;;;;;;;;;;;27.26;31.17;98644.00;2618338;54;19958;-66
2022/07/28 12:02:22;;;;;;;;;;;;;;;27.36;30.79;98635.63;2617691;54;20073;-66
2022/07/28 12:05:02;;;;;;;;;;;;;;;27.35;30.66;98639.44;2618375;54;19946;-66
2022/07/28 12:07:36;;;;;;;;;;;;;;;27.36;30.90;98641.88;2618386;54;19996;-66
2022/07/28 12:10:20;;;;;;;;;;;;;;;27.45;30.99;98638.41;2618254;54;19946;-67
2022/07/28 12:13:13;;;;;;;;;;;;;;;27.45;30.99;98636.50;2618399;54;19946;-67
2022/07/28 12:15:42;;;;;;;;;;;;;;;27.53;30.67;98641.19;2618170;54;19939;-66
2022/07/28 12:18:13;;;;;;;;;;;;;;;27.57;30.70;98644.91;2618064;54;19946;-66
2022/07/28 12:20:48;;;;;;;;;;;;;;;27.50;30.55;98646.44;2618071;54;19946;-65
2022/07/28 12:23:18;;;;;;;;;;;;;;;27.48;30.86;98645.94;2617724;54;19947;-66
2022/07/28 12:25:48;;;;;;;;;;;;;;;27.48;30.92;98641.31;2617570;54;19946;-67
2022/07/28 12:28:21;;;;;;;;;;;;;;;27.49;30.54;98632.06;2617966;49;20460;-67
2022/07/28 12:30:50;;;;;;;;;;;;;;;27.45;30.49;98633.78;2618242;54;20452;-67
2022/07/28 12:33:21;;;;;;;;;;;;;;;27.44;31.02;98621.31;2618352;54;19947;-66
2022/07/28 12:35:59;;;;;;;;;;;;;;;27.57;30.89;98614.22;2618343;54;20046;-65
2022/07/28 12:38:29;;;;;;;;;;;;;;;27.75;30.77;98621.41;2618291;54;19946;-67
2022/07/28 12:40:59;;;;;;;;;;;;;;;27.82;30.25;98623.69;2618139;54;19954;-67
2022/07/28 12:43:33;;;;;;;;;;;;;;;27.86;30.59;98617.31;2618338;54;19954;-67
2022/07/28 12:46:02;;;;;;;;;;;;;;;27.86;30.71;98621.97;2617594;54;19946;-66
2022/07/28 12:48:32;;;;;;;;;;;;;;;27.86;30.44;98614.59;2617801;47;20496;-66
2022/07/28 12:51:01;;;;;;;;;;;;;;;27.89;30.54;98624.06;2618128;54;19953;-68
2022/07/28 12:53:30;;;;;;;;;;;;;;;27.80;30.37;98615.88;2618269;54;19954;-66
2022/07/28 12:56:04;;;;;;;;;;;;;;;27.62;30.49;98619.53;2618144;54;19958;-68
2022/07/28 22:17:48;;;;;;;;;;;;;;;22.02;42.62;98694.31;2619431;47;20093;-66
2022/07/28 22:20:18;;;;;;;;;;;;;;;21.99;42.76;98691.34;2619163;39;20342;-67
2022/07/28 22:22:47;;;;;;;;;;;;;;;21.93;43.34;98695.13;2619838;54;19946;-66
2022/07/28 22:25:16;;;;;;;;;;;;;;;21.92;43.27;98688.09;2619976;54;19946;-65
2022/07/28 22:27:46;;;;;;;;;;;;;;;21.90;43.80;98677.63;2619366;54;19946;-65
2022/07/28 22:30:15;;;;;;;;;;;;;;;21.86;43.36;98678.44;2618715;54;19939;-66
2022/07/28 22:32:44;;;;;;;;;;;;;;;21.80;43.52;98668.72;2619381;54;19951;-66
2022/07/28 22:35:16;;;;;;;;;;;;;;;21.73;44.12;98677.09;2622275;39;20337;-66
2022/07/28 22:37:46;;;;;;;;;;;;;;;21.71;44.40;98666.56;2621073;54;19960;-67